South Yarmouth, Massachusetts
Current Conditions -  °F | °C
As of 2:56 AM on Thursday 29 Jan 2015 (Local Time) from KHYA Reporting Station
Broken Clouds Broken Clouds  
Wind Chill: 10°   Ceiling: 2800
Heat Index: 20°   Visibility: 10mi
Dew Point: 11°   Wind: 8mph
Humidity: 68%   Direction: 300°WNW
Pressure: 30.22"   Gusts: NA
Location:  41.67°N, 70.19°W
Report Text: KHYA 290756Z AUTO 30007KT 10SM BKN028 M07/M12 A3022 RMK AO2 SLP237 T10671117
Loading
Personal Weather Stations






























Interactive Weather Map New forecast layout! Learn more

10-Day Weather Forecast

Advertisements
Track Severe Weather on mobile